sensor_id;sensor_type;location;lat;lon;timestamp;P1;durP1;ratioP1;P2;durP2;ratioP2
53040;SDS011;39326;42.650;23.248;2023-06-19T00:02:20;4.60;;;4.20;;
53040;SDS011;39326;42.650;23.248;2023-06-19T00:04:45;4.63;;;4.23;;
53040;SDS011;39326;42.650;23.248;2023-06-19T00:07:11;4.80;;;4.50;;
53040;SDS011;39326;42.650;23.248;2023-06-19T00:09:36;4.70;;;4.30;;
53040;SDS011;39326;42.650;23.248;2023-06-19T00:12:02;5.10;;;3.93;;
53040;SDS011;39326;42.650;23.248;2023-06-19T00:14:29;5.20;;;4.70;;
53040;SDS011;39326;42.650;23.248;2023-06-19T00:16:54;4.50;;;4.10;;
53040;SDS011;39326;42.650;23.248;2023-06-19T00:19:20;4.33;;;3.93;;
53040;SDS011;39326;42.650;23.248;2023-06-19T00:21:45;5.20;;;4.70;;
53040;SDS011;39326;42.650;23.248;2023-06-19T00:24:11;4.73;;;4.33;;
53040;SDS011;39326;42.650;23.248;2023-06-19T00:26:36;4.87;;;4.50;;
53040;SDS011;39326;42.650;23.248;2023-06-19T00:29:02;5.23;;;4.73;;
53040;SDS011;39326;42.650;23.248;2023-06-19T00:31:27;4.80;;;4.40;;
53040;SDS011;39326;42.650;23.248;2023-06-19T00:33:53;4.67;;;4.30;;
53040;SDS011;39326;42.650;23.248;2023-06-19T00:36:18;5.03;;;4.33;;
53040;SDS011;39326;42.650;23.248;2023-06-19T00:38:48;4.47;;;4.10;;
53040;SDS011;39326;42.650;23.248;2023-06-19T00:41:14;4.80;;;4.40;;
53040;SDS011;39326;42.650;23.248;2023-06-19T00:43:41;5.60;;;4.13;;
53040;SDS011;39326;42.650;23.248;2023-06-19T00:46:07;5.00;;;4.67;;
53040;SDS011;39326;42.650;23.248;2023-06-19T00:48:33;4.93;;;4.37;;
53040;SDS011;39326;42.650;23.248;2023-06-19T00:50:59;4.73;;;4.30;;
53040;SDS011;39326;42.650;23.248;2023-06-19T00:53:25;4.50;;;4.13;;
53040;SDS011;39326;42.650;23.248;2023-06-19T00:55:51;4.80;;;4.33;;
53040;SDS011;39326;42.650;23.248;2023-06-19T00:58:19;4.83;;;4.43;;
53040;SDS011;39326;42.650;23.248;2023-06-19T01:00:48;4.80;;;4.40;;
53040;SDS011;39326;42.650;23.248;2023-06-19T01:03:13;5.47;;;5.07;;
53040;SDS011;39326;42.650;23.248;2023-06-19T01:05:39;4.97;;;4.47;;
53040;SDS011;39326;42.650;23.248;2023-06-19T01:08:18;4.93;;;4.53;;
53040;SDS011;39326;42.650;23.248;2023-06-19T01:10:59;5.35;;;4.07;;
53040;SDS011;39326;42.650;23.248;2023-06-19T01:13:28;5.40;;;5.00;;
53040;SDS011;39326;42.650;23.248;2023-06-19T01:16:02;4.90;;;4.50;;
53040;SDS011;39326;42.650;23.248;2023-06-19T01:18:29;4.63;;;4.33;;
53040;SDS011;39326;42.650;23.248;2023-06-19T01:20:57;4.63;;;4.32;;
53040;SDS011;39326;42.650;23.248;2023-06-19T01:23:33;4.90;;;4.50;;
53040;SDS011;39326;42.650;23.248;2023-06-19T01:25:58;5.67;;;5.00;;
53040;SDS011;39326;42.650;23.248;2023-06-19T01:28:24;5.00;;;4.60;;
53040;SDS011;39326;42.650;23.248;2023-06-19T01:30:51;7.33;;;4.80;;
53040;SDS011;39326;42.650;23.248;2023-06-19T01:33:25;5.37;;;4.97;;
53040;SDS011;39326;42.650;23.248;2023-06-19T01:35:53;5.30;;;4.90;;
53040;SDS011;39326;42.650;23.248;2023-06-19T01:38:22;5.00;;;4.60;;
53040;SDS011;39326;42.650;23.248;2023-06-19T01:40:54;5.57;;;5.17;;
53040;SDS011;39326;42.650;23.248;2023-06-19T01:43:22;5.40;;;5.00;;
53040;SDS011;39326;42.650;23.248;2023-06-19T01:45:48;5.80;;;5.30;;
53040;SDS011;39326;42.650;23.248;2023-06-19T01:48:14;5.47;;;5.00;;
53040;SDS011;39326;42.650;23.248;2023-06-19T01:50:41;5.53;;;4.80;;
53040;SDS011;39326;42.650;23.248;2023-06-19T01:53:11;5.00;;;4.60;;
53040;SDS011;39326;42.650;23.248;2023-06-19T01:55:36;5.07;;;4.67;;
53040;SDS011;39326;42.650;23.248;2023-06-19T01:58:02;5.13;;;4.83;;
53040;SDS011;39326;42.650;23.248;2023-06-19T02:00:28;5.37;;;4.97;;
53040;SDS011;39326;42.650;23.248;2023-06-19T02:02:53;5.38;;;4.97;;
53040;SDS011;39326;42.650;23.248;2023-06-19T02:05:18;5.90;;;4.97;;
53040;SDS011;39326;42.650;23.248;2023-06-19T02:07:44;5.30;;;4.83;;
53040;SDS011;39326;42.650;23.248;2023-06-19T02:10:09;5.57;;;5.07;;
53040;SDS011;39326;42.650;23.248;2023-06-19T02:12:35;5.40;;;5.00;;
53040;SDS011;39326;42.650;23.248;2023-06-19T02:15:00;5.90;;;5.37;;
53040;SDS011;39326;42.650;23.248;2023-06-19T02:17:25;5.60;;;5.20;;
53040;SDS011;39326;42.650;23.248;2023-06-19T02:19:51;5.40;;;5.00;;
53040;SDS011;39326;42.650;23.248;2023-06-19T02:22:17;5.57;;;5.17;;
53040;SDS011;39326;42.650;23.248;2023-06-19T02:24:43;5.10;;;4.70;;
53040;SDS011;39326;42.650;23.248;2023-06-19T02:27:09;5.03;;;4.63;;
53040;SDS011;39326;42.650;23.248;2023-06-19T02:29:35;5.43;;;5.03;;
53040;SDS011;39326;42.650;23.248;2023-06-19T02:32:01;5.63;;;5.23;;
53040;SDS011;39326;42.650;23.248;2023-06-19T02:34:26;6.40;;;5.80;;
53040;SDS011;39326;42.650;23.248;2023-06-19T02:36:52;5.57;;;5.07;;
53040;SDS011;39326;42.650;23.248;2023-06-19T02:39:18;7.87;;;5.50;;
53040;SDS011;39326;42.650;23.248;2023-06-19T02:41:43;5.57;;;5.17;;
53040;SDS011;39326;42.650;23.248;2023-06-19T02:44:11;5.57;;;5.07;;
53040;SDS011;39326;42.650;23.248;2023-06-19T02:46:38;5.17;;;4.77;;
53040;SDS011;39326;42.650;23.248;2023-06-19T02:49:03;4.80;;;4.40;;
53040;SDS011;39326;42.650;23.248;2023-06-19T02:51:29;5.70;;;5.20;;
53040;SDS011;39326;42.650;23.248;2023-06-19T02:53:54;5.83;;;5.17;;
53040;SDS011;39326;42.650;23.248;2023-06-19T02:56:20;6.47;;;5.63;;
53040;SDS011;39326;42.650;23.248;2023-06-19T02:58:45;5.50;;;5.10;;
53040;SDS011;39326;42.650;23.248;2023-06-19T03:01:11;5.60;;;5.20;;
53040;SDS011;39326;42.650;23.248;2023-06-19T03:03:36;5.23;;;4.83;;
53040;SDS011;39326;42.650;23.248;2023-06-19T03:06:06;5.60;;;5.10;;
53040;SDS011;39326;42.650;23.248;2023-06-19T03:08:35;5.70;;;5.30;;
53040;SDS011;39326;42.650;23.248;2023-06-19T03:11:01;5.17;;;4.70;;
53040;SDS011;39326;42.650;23.248;2023-06-19T03:16:18;5.10;;;4.70;;
53040;SDS011;39326;42.650;23.248;2023-06-19T03:18:44;5.60;;;5.20;;
53040;SDS011;39326;42.650;23.248;2023-06-19T03:21:10;5.70;;;5.13;;
53040;SDS011;39326;42.650;23.248;2023-06-19T03:23:36;5.00;;;4.60;;
53040;SDS011;39326;42.650;23.248;2023-06-19T03:26:02;5.70;;;5.23;;
53040;SDS011;39326;42.650;23.248;2023-06-19T03:28:27;5.50;;;5.10;;
53040;SDS011;39326;42.650;23.248;2023-06-19T03:30:53;5.00;;;4.60;;
53040;SDS011;39326;42.650;23.248;2023-06-19T03:33:18;5.00;;;4.43;;
53040;SDS011;39326;42.650;23.248;2023-06-19T03:35:44;5.30;;;4.90;;
53040;SDS011;39326;42.650;23.248;2023-06-19T03:38:09;5.30;;;4.90;;
53040;SDS011;39326;42.650;23.248;2023-06-19T03:40:35;6.53;;;4.87;;
53040;SDS011;39326;42.650;23.248;2023-06-19T03:43:00;4.90;;;4.50;;
53040;SDS011;39326;42.650;23.248;2023-06-19T03:45:25;5.30;;;4.53;;
53040;SDS011;39326;42.650;23.248;2023-06-19T03:47:51;5.20;;;4.50;;
53040;SDS011;39326;42.650;23.248;2023-06-19T03:50:16;5.20;;;4.70;;
53040;SDS011;39326;42.650;23.248;2023-06-19T03:52:42;4.63;;;4.23;;
53040;SDS011;39326;42.650;23.248;2023-06-19T03:55:07;5.20;;;4.70;;
53040;SDS011;39326;42.650;23.248;2023-06-19T03:57:33;4.97;;;4.57;;
53040;SDS011;39326;42.650;23.248;2023-06-19T03:59:58;4.93;;;4.53;;
53040;SDS011;39326;42.650;23.248;2023-06-19T04:02:23;5.43;;;4.70;;
53040;SDS011;39326;42.650;23.248;2023-06-19T04:04:49;4.67;;;4.27;;
53040;SDS011;39326;42.650;23.248;2023-06-19T04:07:14;4.47;;;4.10;;
53040;SDS011;39326;42.650;23.248;2023-06-19T04:09:40;4.90;;;4.40;;
53040;SDS011;39326;42.650;23.248;2023-06-19T04:12:05;4.43;;;4.13;;
53040;SDS011;39326;42.650;23.248;2023-06-19T04:14:31;4.77;;;4.40;;
53040;SDS011;39326;42.650;23.248;2023-06-19T04:16:57;4.43;;;4.03;;
53040;SDS011;39326;42.650;23.248;2023-06-19T04:19:22;5.10;;;4.60;;
53040;SDS011;39326;42.650;23.248;2023-06-19T04:21:48;5.83;;;4.40;;
53040;SDS011;39326;42.650;23.248;2023-06-19T04:24:13;4.23;;;3.93;;
53040;SDS011;39326;42.650;23.248;2023-06-19T04:26:38;5.00;;;4.50;;
53040;SDS011;39326;42.650;23.248;2023-06-19T04:29:04;4.10;;;3.80;;
53040;SDS011;39326;42.650;23.248;2023-06-19T04:31:31;4.47;;;4.17;;
53040;SDS011;39326;42.650;23.248;2023-06-19T04:33:57;5.03;;;4.60;;
53040;SDS011;39326;42.650;23.248;2023-06-19T04:36:22;5.43;;;4.20;;
53040;SDS011;39326;42.650;23.248;2023-06-19T04:38:48;5.23;;;4.33;;
53040;SDS011;39326;42.650;23.248;2023-06-19T04:41:16;4.77;;;4.47;;
53040;SDS011;39326;42.650;23.248;2023-06-19T04:43:42;5.03;;;4.47;;
53040;SDS011;39326;42.650;23.248;2023-06-19T04:46:07;4.93;;;4.43;;
53040;SDS011;39326;42.650;23.248;2023-06-19T04:48:33;4.73;;;4.33;;
53040;SDS011;39326;42.650;23.248;2023-06-19T04:51:01;4.80;;;4.40;;
53040;SDS011;39326;42.650;23.248;2023-06-19T04:53:27;4.90;;;4.40;;
53040;SDS011;39326;42.650;23.248;2023-06-19T04:55:53;4.57;;;4.27;;
53040;SDS011;39326;42.650;23.248;2023-06-19T04:58:20;6.13;;;3.70;;
53040;SDS011;39326;42.650;23.248;2023-06-19T05:00:46;4.97;;;4.50;;
53040;SDS011;39326;42.650;23.248;2023-06-19T05:03:16;4.10;;;3.80;;
53040;SDS011;39326;42.650;23.248;2023-06-19T05:05:43;4.67;;;4.10;;
53040;SDS011;39326;42.650;23.248;2023-06-19T05:08:09;4.13;;;3.73;;
53040;SDS011;39326;42.650;23.248;2023-06-19T05:10:34;4.67;;;4.30;;
53040;SDS011;39326;42.650;23.248;2023-06-19T05:13:00;4.30;;;4.00;;
53040;SDS011;39326;42.650;23.248;2023-06-19T05:15:26;4.15;;;3.72;;
53040;SDS011;39326;42.650;23.248;2023-06-19T05:17:51;4.93;;;4.50;;
53040;SDS011;39326;42.650;23.248;2023-06-19T05:20:17;4.30;;;3.90;;
53040;SDS011;39326;42.650;23.248;2023-06-19T05:22:42;4.97;;;4.60;;
53040;SDS011;39326;42.650;23.248;2023-06-19T05:25:08;4.90;;;4.33;;
53040;SDS011;39326;42.650;23.248;2023-06-19T05:27:34;4.50;;;4.10;;
53040;SDS011;39326;42.650;23.248;2023-06-19T05:29:59;3.92;;;3.63;;
53040;SDS011;39326;42.650;23.248;2023-06-19T05:32:25;4.47;;;4.10;;
53040;SDS011;39326;42.650;23.248;2023-06-19T05:34:50;5.10;;;4.70;;
53040;SDS011;39326;42.650;23.248;2023-06-19T05:37:16;4.63;;;4.23;;
53040;SDS011;39326;42.650;23.248;2023-06-19T05:39:41;4.93;;;4.47;;
53040;SDS011;39326;42.650;23.248;2023-06-19T05:42:07;4.93;;;3.93;;
53040;SDS011;39326;42.650;23.248;2023-06-19T05:44:32;4.53;;;4.13;;
53040;SDS011;39326;42.650;23.248;2023-06-19T05:46:58;4.87;;;4.47;;
53040;SDS011;39326;42.650;23.248;2023-06-19T05:49:23;5.00;;;4.60;;
53040;SDS011;39326;42.650;23.248;2023-06-19T05:51:49;4.93;;;4.53;;
53040;SDS011;39326;42.650;23.248;2023-06-19T05:54:14;4.55;;;4.15;;
53040;SDS011;39326;42.650;23.248;2023-06-19T05:56:39;4.70;;;4.30;;
53040;SDS011;39326;42.650;23.248;2023-06-19T05:59:05;4.73;;;4.43;;
53040;SDS011;39326;42.650;23.248;2023-06-19T06:01:30;4.73;;;4.20;;
53040;SDS011;39326;42.650;23.248;2023-06-19T06:03:56;4.63;;;4.30;;
53040;SDS011;39326;42.650;23.248;2023-06-19T06:06:22;4.83;;;4.43;;
53040;SDS011;39326;42.650;23.248;2023-06-19T06:08:48;5.70;;;4.30;;
53040;SDS011;39326;42.650;23.248;2023-06-19T06:11:14;4.75;;;4.45;;
53040;SDS011;39326;42.650;23.248;2023-06-19T06:13:39;4.50;;;4.20;;
53040;SDS011;39326;42.650;23.248;2023-06-19T06:16:05;4.20;;;3.90;;
53040;SDS011;39326;42.650;23.248;2023-06-19T06:18:30;5.07;;;4.00;;
53040;SDS011;39326;42.650;23.248;2023-06-19T06:20:56;4.70;;;4.30;;
53040;SDS011;39326;42.650;23.248;2023-06-19T06:23:24;4.25;;;3.95;;
53040;SDS011;39326;42.650;23.248;2023-06-19T06:25:49;4.72;;;4.32;;
53040;SDS011;39326;42.650;23.248;2023-06-19T06:28:15;4.57;;;4.28;;
53040;SDS011;39326;42.650;23.248;2023-06-19T06:30:40;4.30;;;4.00;;
53040;SDS011;39326;42.650;23.248;2023-06-19T06:33:05;4.60;;;4.20;;
53040;SDS011;39326;42.650;23.248;2023-06-19T06:35:31;4.78;;;4.38;;
53040;SDS011;39326;42.650;23.248;2023-06-19T06:37:56;4.45;;;4.07;;
53040;SDS011;39326;42.650;23.248;2023-06-19T06:40:22;4.38;;;3.97;;
53040;SDS011;39326;42.650;23.248;2023-06-19T06:42:47;4.32;;;4.03;;
53040;SDS011;39326;42.650;23.248;2023-06-19T06:45:14;4.60;;;4.30;;
53040;SDS011;39326;42.650;23.248;2023-06-19T06:47:39;4.85;;;4.35;;
53040;SDS011;39326;42.650;23.248;2023-06-19T06:50:05;5.57;;;4.15;;
53040;SDS011;39326;42.650;23.248;2023-06-19T06:52:32;4.97;;;4.65;;
53040;SDS011;39326;42.650;23.248;2023-06-19T06:54:57;4.55;;;4.15;;
53040;SDS011;39326;42.650;23.248;2023-06-19T06:57:23;4.93;;;4.35;;
53040;SDS011;39326;42.650;23.248;2023-06-19T06:59:48;3.95;;;3.72;;
53040;SDS011;39326;42.650;23.248;2023-06-19T07:02:13;5.47;;;4.30;;
53040;SDS011;39326;42.650;23.248;2023-06-19T07:04:39;4.40;;;4.00;;
53040;SDS011;39326;42.650;23.248;2023-06-19T07:07:04;4.20;;;3.80;;
53040;SDS011;39326;42.650;23.248;2023-06-19T07:09:31;4.57;;;4.28;;
53040;SDS011;39326;42.650;23.248;2023-06-19T07:11:57;4.38;;;4.05;;
53040;SDS011;39326;42.650;23.248;2023-06-19T07:14:22;4.25;;;3.88;;
53040;SDS011;39326;42.650;23.248;2023-06-19T07:16:48;4.45;;;4.10;;
53040;SDS011;39326;42.650;23.248;2023-06-19T07:19:15;4.30;;;3.90;;
53040;SDS011;39326;42.650;23.248;2023-06-19T07:21:41;4.15;;;3.83;;
53040;SDS011;39326;42.650;23.248;2023-06-19T07:24:07;4.07;;;3.78;;
53040;SDS011;39326;42.650;23.248;2023-06-19T07:26:33;4.22;;;3.92;;
53040;SDS011;39326;42.650;23.248;2023-06-19T07:28:58;4.80;;;4.40;;
53040;SDS011;39326;42.650;23.248;2023-06-19T07:31:24;4.45;;;4.05;;
53040;SDS011;39326;42.650;23.248;2023-06-19T07:33:49;4.25;;;3.95;;
53040;SDS011;39326;42.650;23.248;2023-06-19T07:36:14;4.20;;;3.90;;
53040;SDS011;39326;42.650;23.248;2023-06-19T07:38:44;4.20;;;3.90;;
53040;SDS011;39326;42.650;23.248;2023-06-19T07:41:10;4.20;;;3.90;;
53040;SDS011;39326;42.650;23.248;2023-06-19T07:43:36;4.05;;;3.75;;
53040;SDS011;39326;42.650;23.248;2023-06-19T07:46:02;4.75;;;4.35;;
53040;SDS011;39326;42.650;23.248;2023-06-19T07:48:28;3.95;;;3.60;;
53040;SDS011;39326;42.650;23.248;2023-06-19T07:50:53;4.50;;;4.20;;
53040;SDS011;39326;42.650;23.248;2023-06-19T07:53:19;4.47;;;4.07;;
53040;SDS011;39326;42.650;23.248;2023-06-19T07:55:44;4.30;;;3.90;;
53040;SDS011;39326;42.650;23.248;2023-06-19T07:58:10;4.00;;;3.70;;
53040;SDS011;39326;42.650;23.248;2023-06-19T08:00:36;3.95;;;3.60;;
53040;SDS011;39326;42.650;23.248;2023-06-19T08:03:01;3.55;;;3.25;;
53040;SDS011;39326;42.650;23.248;2023-06-19T08:05:27;4.55;;;4.05;;
53040;SDS011;39326;42.650;23.248;2023-06-19T08:07:52;4.50;;;4.10;;
53040;SDS011;39326;42.650;23.248;2023-06-19T08:10:18;4.35;;;3.95;;
53040;SDS011;39326;42.650;23.248;2023-06-19T08:12:44;4.47;;;3.72;;
53040;SDS011;39326;42.650;23.248;2023-06-19T08:15:09;3.78;;;3.50;;
53040;SDS011;39326;42.650;23.248;2023-06-19T08:17:36;5.05;;;4.20;;
53040;SDS011;39326;42.650;23.248;2023-06-19T08:20:02;3.92;;;3.63;;
53040;SDS011;39326;42.650;23.248;2023-06-19T08:22:30;3.92;;;3.63;;
53040;SDS011;39326;42.650;23.248;2023-06-19T08:24:55;3.85;;;3.50;;
53040;SDS011;39326;42.650;23.248;2023-06-19T08:27:21;4.50;;;4.18;;
53040;SDS011;39326;42.650;23.248;2023-06-19T08:29:46;3.90;;;3.58;;
53040;SDS011;39326;42.650;23.248;2023-06-19T08:32:12;4.43;;;3.90;;
53040;SDS011;39326;42.650;23.248;2023-06-19T08:34:37;4.00;;;3.70;;
53040;SDS011;39326;42.650;23.248;2023-06-19T08:37:03;3.67;;;3.47;;
53040;SDS011;39326;42.650;23.248;2023-06-19T08:39:29;4.07;;;3.78;;
53040;SDS011;39326;42.650;23.248;2023-06-19T08:41:55;3.67;;;3.38;;
53040;SDS011;39326;42.650;23.248;2023-06-19T08:44:21;4.00;;;3.70;;
53040;SDS011;39326;42.650;23.248;2023-06-19T08:46:46;3.92;;;3.63;;
53040;SDS011;39326;42.650;23.248;2023-06-19T08:49:12;3.67;;;3.40;;
53040;SDS011;39326;42.650;23.248;2023-06-19T08:51:39;3.97;;;3.67;;
53040;SDS011;39326;42.650;23.248;2023-06-19T08:54:05;3.97;;;3.40;;
53040;SDS011;39326;42.650;23.248;2023-06-19T08:56:32;3.30;;;3.00;;
53040;SDS011;39326;42.650;23.248;2023-06-19T08:59:11;3.92;;;3.58;;
53040;SDS011;39326;42.650;23.248;2023-06-19T09:01:46;3.95;;;3.65;;
53040;SDS011;39326;42.650;23.248;2023-06-19T09:04:19;3.80;;;3.50;;
53040;SDS011;39326;42.650;23.248;2023-06-19T09:06:56;3.80;;;3.50;;
53040;SDS011;39326;42.650;23.248;2023-06-19T09:09:24;3.58;;;3.28;;
53040;SDS011;39326;42.650;23.248;2023-06-19T09:11:57;3.55;;;3.25;;
53040;SDS011;39326;42.650;23.248;2023-06-19T09:16:59;3.92;;;3.63;;
53040;SDS011;39326;42.650;23.248;2023-06-19T09:19:25;3.80;;;3.50;;
53040;SDS011;39326;42.650;23.248;2023-06-19T09:21:51;4.05;;;3.72;;
53040;SDS011;39326;42.650;23.248;2023-06-19T09:24:16;4.05;;;3.65;;
53040;SDS011;39326;42.650;23.248;2023-06-19T09:26:42;3.75;;;3.40;;
53040;SDS011;39326;42.650;23.248;2023-06-19T09:29:13;3.78;;;3.33;;
53040;SDS011;39326;42.650;23.248;2023-06-19T09:31:43;3.55;;;3.35;;
53040;SDS011;39326;42.650;23.248;2023-06-19T09:34:08;4.00;;;3.70;;
53040;SDS011;39326;42.650;23.248;2023-06-19T09:36:34;4.03;;;3.65;;
53040;SDS011;39326;42.650;23.248;2023-06-19T09:39:00;3.90;;;3.60;;
53040;SDS011;39326;42.650;23.248;2023-06-19T09:41:28;3.95;;;3.60;;
53040;SDS011;39326;42.650;23.248;2023-06-19T09:43:55;4.15;;;3.85;;
53040;SDS011;39326;42.650;23.248;2023-06-19T09:46:34;4.28;;;3.90;;
53040;SDS011;39326;42.650;23.248;2023-06-19T09:49:01;3.78;;;3.47;;
53040;SDS011;39326;42.650;23.248;2023-06-19T09:51:32;3.55;;;3.25;;
53040;SDS011;39326;42.650;23.248;2023-06-19T09:54:02;3.67;;;3.38;;
53040;SDS011;39326;42.650;23.248;2023-06-19T09:56:29;3.70;;;3.40;;
53040;SDS011;39326;42.650;23.248;2023-06-19T09:58:56;3.65;;;3.38;;
53040;SDS011;39326;42.650;23.248;2023-06-19T10:01:25;3.88;;;3.58;;
53040;SDS011;39326;42.650;23.248;2023-06-19T10:04:03;3.97;;;3.67;;
53040;SDS011;39326;42.650;23.248;2023-06-19T10:06:41;4.43;;;3.53;;
53040;SDS011;39326;42.650;23.248;2023-06-19T10:09:08;4.18;;;3.88;;
53040;SDS011;39326;42.650;23.248;2023-06-19T10:11:44;4.13;;;3.83;;
53040;SDS011;39326;42.650;23.248;2023-06-19T10:14:17;4.40;;;3.83;;
53040;SDS011;39326;42.650;23.248;2023-06-19T10:16:46;3.80;;;3.35;;
53040;SDS011;39326;42.650;23.248;2023-06-19T10:19:13;5.13;;;3.85;;
53040;SDS011;39326;42.650;23.248;2023-06-19T10:21:49;4.25;;;3.85;;
53040;SDS011;39326;42.650;23.248;2023-06-19T10:24:16;3.92;;;3.63;;
53040;SDS011;39326;42.650;23.248;2023-06-19T10:29:51;4.00;;;3.70;;
53040;SDS011;39326;42.650;23.248;2023-06-19T10:32:17;4.47;;;3.50;;
53040;SDS011;39326;42.650;23.248;2023-06-19T10:34:45;5.18;;;4.13;;
53040;SDS011;39326;42.650;23.248;2023-06-19T10:37:15;4.00;;;3.60;;
53040;SDS011;39326;42.650;23.248;2023-06-19T10:39:41;3.60;;;3.30;;
53040;SDS011;39326;42.650;23.248;2023-06-19T10:42:07;3.90;;;3.60;;
53040;SDS011;39326;42.650;23.248;2023-06-19T10:44:34;3.55;;;3.35;;
53040;SDS011;39326;42.650;23.248;2023-06-19T10:47:01;3.80;;;3.50;;
53040;SDS011;39326;42.650;23.248;2023-06-19T10:49:27;4.05;;;3.75;;
53040;SDS011;39326;42.650;23.248;2023-06-19T10:51:53;3.67;;;3.47;;
53040;SDS011;39326;42.650;23.248;2023-06-19T10:54:24;4.07;;;3.78;;
53040;SDS011;39326;42.650;23.248;2023-06-19T10:56:50;3.70;;;3.50;;
53040;SDS011;39326;42.650;23.248;2023-06-19T10:59:16;4.40;;;3.92;;
53040;SDS011;39326;42.650;23.248;2023-06-19T11:01:44;4.13;;;3.83;;
53040;SDS011;39326;42.650;23.248;2023-06-19T11:04:12;3.85;;;3.55;;
53040;SDS011;39326;42.650;23.248;2023-06-19T11:06:39;3.97;;;3.67;;
53040;SDS011;39326;42.650;23.248;2023-06-19T11:09:06;4.15;;;3.67;;
53040;SDS011;39326;42.650;23.248;2023-06-19T11:11:42;3.83;;;3.53;;
53040;SDS011;39326;42.650;23.248;2023-06-19T11:14:08;4.18;;;3.80;;
53040;SDS011;39326;42.650;23.248;2023-06-19T11:16:37;4.18;;;3.78;;
53040;SDS011;39326;42.650;23.248;2023-06-19T11:19:05;4.60;;;4.30;;
53040;SDS011;39326;42.650;23.248;2023-06-19T11:21:32;3.65;;;3.35;;
53040;SDS011;39326;42.650;23.248;2023-06-19T11:24:03;4.43;;;3.85;;
53040;SDS011;39326;42.650;23.248;2023-06-19T11:26:34;4.25;;;3.85;;
53040;SDS011;39326;42.650;23.248;2023-06-19T11:29:20;4.38;;;4.03;;
53040;SDS011;39326;42.650;23.248;2023-06-19T11:31:50;4.15;;;3.72;;
53040;SDS011;39326;42.650;23.248;2023-06-19T11:34:16;4.35;;;4.00;;
53040;SDS011;39326;42.650;23.248;2023-06-19T11:36:43;4.47;;;4.10;;
53040;SDS011;39326;42.650;23.248;2023-06-19T11:39:12;4.20;;;3.90;;
53040;SDS011;39326;42.650;23.248;2023-06-19T11:41:38;4.43;;;4.10;;
53040;SDS011;39326;42.650;23.248;2023-06-19T11:44:05;4.65;;;4.20;;
53040;SDS011;39326;42.650;23.248;2023-06-19T11:46:34;3.92;;;3.72;;
53040;SDS011;39326;42.650;23.248;2023-06-19T11:51:37;4.30;;;3.88;;
53040;SDS011;39326;42.650;23.248;2023-06-19T11:54:05;4.35;;;4.05;;
53040;SDS011;39326;42.650;23.248;2023-06-19T11:56:31;4.22;;;3.92;;
53040;SDS011;39326;42.650;23.248;2023-06-19T11:58:56;5.32;;;4.07;;
53040;SDS011;39326;42.650;23.248;2023-06-19T12:01:22;4.13;;;3.88;;
53040;SDS011;39326;42.650;23.248;2023-06-19T12:03:47;4.60;;;4.18;;
53040;SDS011;39326;42.650;23.248;2023-06-19T12:06:13;4.35;;;4.05;;
53040;SDS011;39326;42.650;23.248;2023-06-19T12:08:38;4.75;;;4.35;;
53040;SDS011;39326;42.650;23.248;2023-06-19T12:11:04;4.25;;;3.90;;
53040;SDS011;39326;42.650;23.248;2023-06-19T12:13:33;4.43;;;4.07;;
53040;SDS011;39326;42.650;23.248;2023-06-19T12:15:58;4.72;;;4.32;;
53040;SDS011;39326;42.650;23.248;2023-06-19T12:18:24;4.68;;;3.90;;
53040;SDS011;39326;42.650;23.248;2023-06-19T12:20:49;4.35;;;4.05;;
53040;SDS011;39326;42.650;23.248;2023-06-19T12:23:15;4.43;;;4.15;;
53040;SDS011;39326;42.650;23.248;2023-06-19T12:25:40;4.30;;;4.00;;
53040;SDS011;39326;42.650;23.248;2023-06-19T12:28:05;4.07;;;3.78;;
53040;SDS011;39326;42.650;23.248;2023-06-19T12:30:34;4.45;;;4.10;;
53040;SDS011;39326;42.650;23.248;2023-06-19T12:33:01;4.13;;;3.83;;
53040;SDS011;39326;42.650;23.248;2023-06-19T12:35:29;4.70;;;4.40;;
53040;SDS011;39326;42.650;23.248;2023-06-19T12:37:54;4.63;;;4.22;;
53040;SDS011;39326;42.650;23.248;2023-06-19T12:40:20;4.50;;;4.20;;
53040;SDS011;39326;42.650;23.248;2023-06-19T12:42:46;4.18;;;3.88;;
53040;SDS011;39326;42.650;23.248;2023-06-19T12:45:11;4.55;;;4.25;;
53040;SDS011;39326;42.650;23.248;2023-06-19T12:47:37;5.10;;;4.47;;
53040;SDS011;39326;42.650;23.248;2023-06-19T12:50:03;4.70;;;4.30;;
53040;SDS011;39326;42.650;23.248;2023-06-19T12:52:29;4.38;;;4.07;;
53040;SDS011;39326;42.650;23.248;2023-06-19T12:54:56;4.88;;;4.20;;
53040;SDS011;39326;42.650;23.248;2023-06-19T12:57:21;4.65;;;4.20;;
53040;SDS011;39326;42.650;23.248;2023-06-19T12:59:47;3.85;;;3.55;;
53040;SDS011;39326;42.650;23.248;2023-06-19T13:02:12;4.30;;;3.90;;
53040;SDS011;39326;42.650;23.248;2023-06-19T13:04:37;4.00;;;3.70;;
53040;SDS011;39326;42.650;23.248;2023-06-19T13:07:03;4.30;;;3.97;;
53040;SDS011;39326;42.650;23.248;2023-06-19T13:09:29;3.80;;;3.50;;
53040;SDS011;39326;42.650;23.248;2023-06-19T13:11:55;4.57;;;4.28;;
53040;SDS011;39326;42.650;23.248;2023-06-19T13:14:20;3.97;;;3.78;;
53040;SDS011;39326;42.650;23.248;2023-06-19T13:16:46;4.20;;;3.90;;
53040;SDS011;39326;42.650;23.248;2023-06-19T13:19:11;4.35;;;3.95;;
53040;SDS011;39326;42.650;23.248;2023-06-19T13:21:37;4.28;;;3.97;;
53040;SDS011;39326;42.650;23.248;2023-06-19T13:24:02;4.63;;;4.22;;
53040;SDS011;39326;42.650;23.248;2023-06-19T13:26:28;4.03;;;3.67;;
53040;SDS011;39326;42.650;23.248;2023-06-19T13:28:54;4.10;;;3.80;;
53040;SDS011;39326;42.650;23.248;2023-06-19T13:31:23;4.13;;;3.58;;
53040;SDS011;39326;42.650;23.248;2023-06-19T13:33:49;4.20;;;3.80;;
53040;SDS011;39326;42.650;23.248;2023-06-19T13:36:15;3.92;;;3.63;;
53040;SDS011;39326;42.650;23.248;2023-06-19T13:38:40;3.67;;;3.33;;
53040;SDS011;39326;42.650;23.248;2023-06-19T13:41:05;4.55;;;4.18;;
53040;SDS011;39326;42.650;23.248;2023-06-19T13:43:31;3.75;;;3.55;;
53040;SDS011;39326;42.650;23.248;2023-06-19T13:45:57;3.90;;;3.60;;
53040;SDS011;39326;42.650;23.248;2023-06-19T13:48:22;4.72;;;3.58;;
53040;SDS011;39326;42.650;23.248;2023-06-19T13:50:47;4.35;;;3.95;;
53040;SDS011;39326;42.650;23.248;2023-06-19T13:53:13;3.78;;;3.47;;
53040;SDS011;39326;42.650;23.248;2023-06-19T13:55:38;4.03;;;3.72;;
53040;SDS011;39326;42.650;23.248;2023-06-19T13:58:04;3.95;;;3.70;;
53040;SDS011;39326;42.650;23.248;2023-06-19T14:00:29;4.05;;;3.75;;
53040;SDS011;39326;42.650;23.248;2023-06-19T14:02:54;4.13;;;3.83;;
53040;SDS011;39326;42.650;23.248;2023-06-19T14:05:20;3.83;;;3.53;;
53040;SDS011;39326;42.650;23.248;2023-06-19T14:07:45;3.85;;;3.60;;
53040;SDS011;39326;42.650;23.248;2023-06-19T14:10:11;4.95;;;3.92;;
53040;SDS011;39326;42.650;23.248;2023-06-19T14:12:37;4.30;;;4.00;;
53040;SDS011;39326;42.650;23.248;2023-06-19T14:15:02;4.03;;;3.60;;
53040;SDS011;39326;42.650;23.248;2023-06-19T14:17:28;4.45;;;3.90;;
53040;SDS011;39326;42.650;23.248;2023-06-19T14:19:53;4.25;;;3.85;;
53040;SDS011;39326;42.650;23.248;2023-06-19T14:22:22;5.10;;;4.05;;
53040;SDS011;39326;42.650;23.248;2023-06-19T14:24:47;4.57;;;4.22;;
53040;SDS011;39326;42.650;23.248;2023-06-19T14:27:12;4.00;;;3.70;;
53040;SDS011;39326;42.650;23.248;2023-06-19T14:29:38;3.78;;;3.47;;
53040;SDS011;39326;42.650;23.248;2023-06-19T14:32:04;5.53;;;3.67;;
53040;SDS011;39326;42.650;23.248;2023-06-19T14:34:29;4.15;;;3.85;;
53040;SDS011;39326;42.650;23.248;2023-06-19T14:36:54;4.43;;;4.03;;
53040;SDS011;39326;42.650;23.248;2023-06-19T14:39:20;4.35;;;4.05;;
53040;SDS011;39326;42.650;23.248;2023-06-19T14:41:45;4.50;;;4.10;;